Time;durP1;ratioP1;P1;durP2;ratioP2;P2;SDS_P1;SDS_P2;PMS_P1;PMS_P2;Temp;Humidity;BMP_temperature;BMP_pressure;BME280_temperature;BME280_humidity;BME280_pressure;Samples;Min_cycle;Max_cycle;Signal;HPM_P1;HPM_P2
2021/07/28 00:00:53;;;;;;;4.28;2.65;;;;;;;;;;5098893;28;20114;-77
2021/07/28 00:03:20;;;;;;;5.20;2.75;;;;;;;;;;5077089;28;20083;-78
2021/07/28 00:05:47;;;;;;;9.93;4.03;;;;;;;;;;5060761;28;20109;-82
2021/07/28 00:08:14;;;;;;;5.53;2.45;;;;;;;;;;5069390;28;20489;-78
2021/07/28 00:10:41;;;;;;;8.25;3.17;;;;;;;;;;5070390;28;20544;-78
2021/07/28 00:13:07;;;;;;;8.85;4.03;;;;;;;;;;5059055;28;20040;-79
2021/07/28 00:15:34;;;;;;;6.40;2.58;;;;;;;;;;5059965;28;20101;-77
2021/07/28 00:18:11;;;;;;;8.00;4.15;;;;;;;;;;5079038;28;20036;-78
2021/07/28 00:23:14;;;;;;;6.05;3.10;;;;;;;;;;5083742;28;20040;-77
2021/07/28 00:25:49;;;;;;;5.05;2.13;;;;;;;;;;5081919;28;20437;-79
2021/07/28 00:28:15;;;;;;;6.18;2.55;;;;;;;;;;5082449;28;20062;-79
2021/07/28 00:30:42;;;;;;;9.65;4.75;;;;;;;;;;5081927;28;20076;-80
2021/07/28 00:33:10;;;;;;;10.65;5.90;;;;;;;;;;5060099;28;20042;-79
2021/07/28 00:35:37;;;;;;;9.38;4.53;;;;;;;;;;5052441;28;20044;-79
2021/07/28 00:38:05;;;;;;;7.18;3.17;;;;;;;;;;5078408;28;20043;-76
2021/07/28 00:40:34;;;;;;;9.57;3.72;;;;;;;;;;5076487;28;20051;-77
2021/07/28 00:43:10;;;;;;;9.07;3.47;;;;;;;;;;5062966;28;20096;-78
2021/07/28 00:45:36;;;;;;;11.18;4.00;;;;;;;;;;5095209;28;20557;-77
2021/07/28 00:48:03;;;;;;;6.90;3.88;;;;;;;;;;5090483;28;20140;-78
2021/07/28 00:50:40;;;;;;;11.43;3.65;;;;;;;;;;5094267;28;20155;-77
2021/07/28 00:53:14;;;;;;;5.45;2.28;;;;;;;;;;5080974;28;20402;-77
2021/07/28 00:55:41;;;;;;;5.47;2.20;;;;;;;;;;5091545;28;20394;-77
2021/07/28 00:58:07;;;;;;;5.82;3.13;;;;;;;;;;5083161;28;20189;-76
2021/07/28 01:00:34;;;;;;;9.48;3.03;;;;;;;;;;5071048;28;20039;-77
2021/07/28 01:03:00;;;;;;;8.35;4.35;;;;;;;;;;5099191;28;20063;-77
2021/07/28 01:05:27;;;;;;;7.50;3.50;;;;;;;;;;5078718;28;20036;-78
2021/07/28 01:07:53;;;;;;;11.48;4.50;;;;;;;;;;5073922;28;20541;-78
2021/07/28 01:10:20;;;;;;;12.70;5.63;;;;;;;;;;5080836;28;20048;-77
2021/07/28 01:12:52;;;;;;;10.13;6.20;;;;;;;;;;5062559;28;20111;-78
2021/07/28 01:15:40;;;;;;;7.57;4.03;;;;;;;;;;5079212;28;20044;-78
2021/07/28 01:18:09;;;;;;;8.30;4.30;;;;;;;;;;5081386;28;20032;-77
2021/07/28 01:20:46;;;;;;;8.85;3.78;;;;;;;;;;5061443;28;20051;-77
2021/07/28 01:23:25;;;;;;;8.10;3.67;;;;;;;;;;5078094;28;20402;-76
2021/07/28 01:25:54;;;;;;;7.18;4.97;;;;;;;;;;5061561;28;20060;-76
2021/07/28 01:28:23;;;;;;;11.52;8.88;;;;;;;;;;5055402;28;20040;-77
2021/07/28 01:31:10;;;;;;;5.70;4.00;;;;;;;;;;5088116;28;20117;-78
2021/07/28 01:33:38;;;;;;;7.32;3.38;;;;;;;;;;5089553;28;20502;-77
2021/07/28 01:36:07;;;;;;;7.43;4.03;;;;;;;;;;5090794;28;20051;-77
2021/07/28 01:38:35;;;;;;;6.80;4.13;;;;;;;;;;5090028;28;20040;-76
2021/07/28 01:41:04;;;;;;;7.13;4.80;;;;;;;;;;5088722;28;20044;-76
2021/07/28 01:43:31;;;;;;;6.88;4.57;;;;;;;;;;5088200;28;20494;-76
2021/07/28 01:45:59;;;;;;;7.88;4.72;;;;;;;;;;5062745;28;20039;-78
2021/07/28 01:48:27;;;;;;;7.78;4.65;;;;;;;;;;5070971;28;20036;-76
2021/07/28 01:50:56;;;;;;;12.30;5.60;;;;;;;;;;5068329;28;20064;-76
2021/07/28 01:53:24;;;;;;;10.10;5.72;;;;;;;;;;5079612;28;20048;-76
2021/07/28 01:55:53;;;;;;;11.20;6.60;;;;;;;;;;5063410;28;20101;-74
2021/07/28 01:58:20;;;;;;;15.43;6.00;;;;;;;;;;5069195;28;20124;-76
2021/07/28 02:00:47;;;;;;;8.48;4.82;;;;;;;;;;5034065;28;20040;-76
2021/07/28 02:03:16;;;;;;;10.38;4.35;;;;;;;;;;5070077;28;20048;-76
2021/07/28 02:05:43;;;;;;;9.57;5.05;;;;;;;;;;5075865;28;20044;-76
2021/07/28 02:08:16;;;;;;;9.98;3.55;;;;;;;;;;5059806;28;20119;-77
2021/07/28 02:10:46;;;;;;;7.20;3.58;;;;;;;;;;5079088;28;20054;-75
2021/07/28 02:13:23;;;;;;;9.90;5.07;;;;;;;;;;5080070;28;20068;-76
2021/07/28 02:15:49;;;;;;;10.82;4.50;;;;;;;;;;5073880;28;20044;-76
2021/07/28 02:18:17;;;;;;;8.82;3.65;;;;;;;;;;5047195;28;20405;-76
2021/07/28 02:20:44;;;;;;;4.97;2.58;;;;;;;;;;5065920;28;20756;-76
2021/07/28 02:23:10;;;;;;;8.52;3.40;;;;;;;;;;5081912;28;20032;-76
2021/07/28 02:25:37;;;;;;;5.85;2.78;;;;;;;;;;5098769;28;20462;-77
2021/07/28 02:28:03;;;;;;;5.32;2.70;;;;;;;;;;5071647;28;20038;-76
2021/07/28 02:30:30;;;;;;;78.68;46.30;;;;;;;;;;5096596;28;20092;-76
2021/07/28 02:32:57;;;;;;;72.50;42.72;;;;;;;;;;5097870;28;20035;-76
2021/07/28 02:35:23;;;;;;;43.67;27.65;;;;;;;;;;5077101;28;20408;-76
2021/07/28 02:37:50;;;;;;;24.30;18.05;;;;;;;;;;5079038;28;20413;-76
2021/07/28 02:40:19;;;;;;;15.02;12.25;;;;;;;;;;5066585;28;20035;-77
2021/07/28 02:42:47;;;;;;;9.82;6.20;;;;;;;;;;5085735;28;20036;-77
2021/07/28 02:45:14;;;;;;;15.27;11.02;;;;;;;;;;5090180;28;20062;-77
2021/07/28 02:47:41;;;;;;;12.05;7.22;;;;;;;;;;5075686;28;20044;-78
2021/07/28 02:50:08;;;;;;;9.70;6.20;;;;;;;;;;5083450;28;20043;-77
2021/07/28 02:52:35;;;;;;;9.52;5.75;;;;;;;;;;5067784;28;20043;-78
2021/07/28 02:55:07;;;;;;;13.00;7.55;;;;;;;;;;5089078;28;20068;-79
2021/07/28 02:57:35;;;;;;;8.20;5.22;;;;;;;;;;5053326;28;20123;-77
2021/07/28 03:00:03;;;;;;;8.32;3.78;;;;;;;;;;5067515;28;20070;-79
2021/07/28 03:02:30;;;;;;;5.43;3.28;;;;;;;;;;5068742;28;20035;-78
2021/07/28 03:04:56;;;;;;;6.72;3.70;;;;;;;;;;5076564;28;20410;-78
2021/07/28 03:07:23;;;;;;;6.65;4.10;;;;;;;;;;5070023;28;20074;-78
2021/07/28 03:09:49;;;;;;;7.53;4.22;;;;;;;;;;5054573;28;20040;-77
2021/07/28 03:12:16;;;;;;;18.48;9.80;;;;;;;;;;5071163;28;20135;-77
2021/07/28 03:14:42;;;;;;;18.80;10.80;;;;;;;;;;5051316;28;20036;-78
2021/07/28 03:17:09;;;;;;;12.57;5.57;;;;;;;;;;5074678;28;20039;-77
2021/07/28 03:19:35;;;;;;;9.18;3.90;;;;;;;;;;5094606;28;20040;-76
2021/07/28 03:22:02;;;;;;;7.13;3.50;;;;;;;;;;5080772;28;20067;-78
2021/07/28 03:24:28;;;;;;;7.57;3.25;;;;;;;;;;5076353;28;20473;-77
2021/07/28 03:26:56;;;;;;;8.50;3.25;;;;;;;;;;5074631;28;20047;-77
2021/07/28 03:29:23;;;;;;;5.95;3.35;;;;;;;;;;5096310;28;20047;-77
2021/07/28 03:31:50;;;;;;;5.88;3.17;;;;;;;;;;5093812;28;20055;-78
2021/07/28 03:34:17;;;;;;;19.25;8.75;;;;;;;;;;5077306;28;20107;-76
2021/07/28 03:36:43;;;;;;;15.07;7.97;;;;;;;;;;5082312;28;20051;-76
2021/07/28 03:39:10;;;;;;;21.13;9.55;;;;;;;;;;5084824;28;20035;-77
2021/07/28 03:41:37;;;;;;;9.73;5.18;;;;;;;;;;5076686;28;20078;-76
2021/07/28 03:44:03;;;;;;;11.27;6.15;;;;;;;;;;5094721;28;20070;-76
2021/07/28 03:46:30;;;;;;;10.20;4.30;;;;;;;;;;5094385;28;20036;-77
2021/07/28 03:48:57;;;;;;;7.70;4.07;;;;;;;;;;5093504;28;20063;-76
2021/07/28 03:51:23;;;;;;;8.05;3.42;;;;;;;;;;5092771;28;20040;-77
2021/07/28 03:53:50;;;;;;;9.45;4.13;;;;;;;;;;5084010;28;20044;-77
2021/07/28 03:56:22;;;;;;;8.52;4.10;;;;;;;;;;5076624;28;20058;-76
2021/07/28 03:58:56;;;;;;;8.40;5.95;;;;;;;;;;5075132;28;20578;-77
2021/07/28 04:01:24;;;;;;;10.77;4.13;;;;;;;;;;5092466;28;20525;-77
2021/07/28 04:03:50;;;;;;;6.93;3.72;;;;;;;;;;5093668;28;20478;-78
2021/07/28 04:06:18;;;;;;;6.80;3.17;;;;;;;;;;5094848;28;20502;-78
2021/07/28 04:08:44;;;;;;;7.15;3.20;;;;;;;;;;5091502;28;20039;-77
2021/07/28 04:11:11;;;;;;;10.13;5.57;;;;;;;;;;5097482;28;20493;-76
2021/07/28 04:13:37;;;;;;;12.30;5.35;;;;;;;;;;5094167;28;20036;-78
2021/07/28 04:16:05;;;;;;;19.48;8.77;;;;;;;;;;5094184;28;20213;-78
2021/07/28 04:18:31;;;;;;;13.13;7.70;;;;;;;;;;5095570;28;20040;-77
2021/07/28 04:20:58;;;;;;;8.77;4.00;;;;;;;;;;5092870;28;21087;-77
2021/07/28 04:23:24;;;;;;;4.75;2.25;;;;;;;;;;5091930;28;20047;-77
2021/07/28 04:25:51;;;;;;;6.47;2.90;;;;;;;;;;5093173;28;20394;-78
2021/07/28 04:28:18;;;;;;;6.90;3.38;;;;;;;;;;5093185;28;20032;-78
2021/07/28 04:30:44;;;;;;;10.00;3.55;;;;;;;;;;5073809;28;20123;-77
2021/07/28 04:33:11;;;;;;;7.85;3.63;;;;;;;;;;5074881;28;20039;-78
2021/07/28 04:35:37;;;;;;;9.07;4.75;;;;;;;;;;5093589;28;20047;-78
2021/07/28 04:38:04;;;;;;;11.25;6.22;;;;;;;;;;5096087;28;20031;-77
2021/07/28 04:40:30;;;;;;;12.10;5.60;;;;;;;;;;5093000;28;20040;-77
2021/07/28 04:42:57;;;;;;;13.15;6.35;;;;;;;;;;5075211;28;20446;-77
2021/07/28 04:45:23;;;;;;;13.57;5.30;;;;;;;;;;5091518;28;20539;-77
2021/07/28 04:47:50;;;;;;;11.43;4.80;;;;;;;;;;5075037;28;20036;-77
2021/07/28 04:50:16;;;;;;;7.38;3.97;;;;;;;;;;5075779;28;20506;-77
2021/07/28 04:52:43;;;;;;;9.52;4.68;;;;;;;;;;5073348;28;20070;-77
2021/07/28 04:55:10;;;;;;;11.25;4.88;;;;;;;;;;5092632;28;20108;-77
2021/07/28 04:57:36;;;;;;;11.73;5.70;;;;;;;;;;5093742;28;20117;-77
2021/07/28 05:00:04;;;;;;;13.10;6.38;;;;;;;;;;5093959;28;20089;-77
2021/07/28 05:02:30;;;;;;;11.98;5.90;;;;;;;;;;5091878;28;20452;-77
2021/07/28 05:04:57;;;;;;;11.63;5.65;;;;;;;;;;5091720;28;20052;-77
2021/07/28 05:07:25;;;;;;;9.25;4.80;;;;;;;;;;5092794;28;20036;-78
2021/07/28 05:09:51;;;;;;;8.10;3.80;;;;;;;;;;5092087;28;20064;-77
2021/07/28 05:12:18;;;;;;;6.18;3.38;;;;;;;;;;5073501;28;20205;-77
2021/07/28 05:14:45;;;;;;;8.05;3.35;;;;;;;;;;5073058;28;20036;-77
2021/07/28 05:17:11;;;;;;;8.32;3.42;;;;;;;;;;5093547;28;20104;-77
2021/07/28 05:19:38;;;;;;;8.70;3.00;;;;;;;;;;5093355;28;20039;-77
2021/07/28 05:22:04;;;;;;;6.05;2.83;;;;;;;;;;5080371;28;20433;-77
2021/07/28 05:24:31;;;;;;;6.95;2.97;;;;;;;;;;5073468;28;20039;-77
2021/07/28 05:26:57;;;;;;;10.40;2.88;;;;;;;;;;5075433;28;20051;-77
2021/07/28 05:29:24;;;;;;;8.90;4.03;;;;;;;;;;5091207;28;20089;-77
2021/07/28 05:31:50;;;;;;;9.50;3.92;;;;;;;;;;5092124;28;20047;-77
2021/07/28 05:34:17;;;;;;;9.55;3.30;;;;;;;;;;5093124;28;20375;-77
2021/07/28 05:36:43;;;;;;;10.65;4.95;;;;;;;;;;5090835;28;20044;-77
2021/07/28 05:39:10;;;;;;;9.00;3.53;;;;;;;;;;5096320;28;20118;-77
2021/07/28 05:41:36;;;;;;;9.20;3.38;;;;;;;;;;5075758;28;20048;-77
2021/07/28 05:44:08;;;;;;;8.30;3.13;;;;;;;;;;5093264;28;20063;-77
2021/07/28 05:46:38;;;;;;;11.10;3.10;;;;;;;;;;5073426;28;20114;-77
2021/07/28 05:49:04;;;;;;;8.35;2.92;;;;;;;;;;5092636;28;20032;-77
2021/07/28 05:51:31;;;;;;;6.15;2.80;;;;;;;;;;5073518;28;20125;-77
2021/07/28 05:53:58;;;;;;;8.68;3.22;;;;;;;;;;5091049;28;20044;-77
2021/07/28 05:56:24;;;;;;;7.32;3.10;;;;;;;;;;5090543;28;20130;-77
2021/07/28 05:58:51;;;;;;;5.93;2.72;;;;;;;;;;5077195;28;20051;-77
2021/07/28 06:01:17;;;;;;;4.40;2.45;;;;;;;;;;5093894;28;20042;-77
2021/07/28 06:03:47;;;;;;;5.80;2.15;;;;;;;;;;5090882;28;20562;-77
2021/07/28 06:06:14;;;;;;;4.18;1.67;;;;;;;;;;5090981;28;20035;-77
2021/07/28 06:08:42;;;;;;;3.22;1.52;;;;;;;;;;5092901;28;20032;-78
2021/07/28 06:11:09;;;;;;;4.25;1.30;;;;;;;;;;5090729;28;20498;-77
2021/07/28 06:13:35;;;;;;;2.97;1.10;;;;;;;;;;5091551;28;20067;-77
2021/07/28 06:16:05;;;;;;;2.22;1.00;;;;;;;;;;5073166;28;20040;-77
2021/07/28 06:18:33;;;;;;;3.33;0.98;;;;;;;;;;5073348;28;20032;-77
2021/07/28 06:21:01;;;;;;;3.85;1.15;;;;;;;;;;5072817;28;20421;-77
2021/07/28 06:23:27;;;;;;;2.85;1.25;;;;;;;;;;5095968;28;20091;-78
2021/07/28 06:25:54;;;;;;;3.90;1.23;;;;;;;;;;5092000;28;20054;-77
2021/07/28 06:28:21;;;;;;;2.80;0.93;;;;;;;;;;5089701;28;20085;-78
2021/07/28 06:30:51;;;;;;;3.17;1.23;;;;;;;;;;5074160;28;20043;-76
2021/07/28 06:33:18;;;;;;;2.55;0.90;;;;;;;;;;5073725;28;20040;-77
2021/07/28 06:35:47;;;;;;;2.33;0.77;;;;;;;;;;5090891;28;20067;-78
2021/07/28 06:38:14;;;;;;;2.60;0.88;;;;;;;;;;5091121;28;20074;-78
2021/07/28 06:40:41;;;;;;;1.02;0.60;;;;;;;;;;5073469;28;20076;-77
2021/07/28 06:43:07;;;;;;;3.72;1.20;;;;;;;;;;5074645;28;21534;-77
2021/07/28 06:45:34;;;;;;;1.40;0.70;;;;;;;;;;5095136;28;20450;-77
2021/07/28 06:48:01;;;;;;;3.83;1.30;;;;;;;;;;5099548;28;20048;-77
2021/07/28 06:50:27;;;;;;;3.90;1.77;;;;;;;;;;5095679;28;20064;-76
2021/07/28 06:52:54;;;;;;;3.30;2.25;;;;;;;;;;5095604;28;20118;-76
2021/07/28 06:55:20;;;;;;;3.47;2.40;;;;;;;;;;5093727;28;20040;-77
2021/07/28 06:57:47;;;;;;;6.07;2.50;;;;;;;;;;5096587;28;24646;-77
2021/07/28 07:00:14;;;;;;;3.20;1.95;;;;;;;;;;5096624;28;20044;-76
2021/07/28 07:02:41;;;;;;;3.35;1.35;;;;;;;;;;5077990;28;20047;-77
2021/07/28 07:05:08;;;;;;;3.33;1.20;;;;;;;;;;5096206;28;20043;-76
2021/07/28 07:07:35;;;;;;;2.47;1.10;;;;;;;;;;5076819;28;20046;-78
2021/07/28 07:10:05;;;;;;;1.05;0.90;;;;;;;;;;5093368;28;20083;-77
2021/07/28 07:12:31;;;;;;;2.58;1.10;;;;;;;;;;5094161;28;20043;-78
2021/07/28 07:14:58;;;;;;;4.20;2.22;;;;;;;;;;5094952;28;20626;-77
2021/07/28 07:17:24;;;;;;;2.60;1.73;;;;;;;;;;5098647;28;20040;-77
2021/07/28 07:19:51;;;;;;;2.80;1.70;;;;;;;;;;5096224;28;20075;-77
2021/07/28 07:22:17;;;;;;;5.13;2.80;;;;;;;;;;5092437;28;20122;-77
2021/07/28 07:24:47;;;;;;;3.45;2.85;;;;;;;;;;5095240;28;20051;-77
2021/07/28 07:27:13;;;;;;;5.68;2.85;;;;;;;;;;5096479;28;20075;-77
2021/07/28 07:29:40;;;;;;;6.05;3.13;;;;;;;;;;5096061;28;20047;-77
2021/07/28 07:32:06;;;;;;;4.60;1.92;;;;;;;;;;5092211;28;20070;-77
2021/07/28 07:34:33;;;;;;;5.05;1.55;;;;;;;;;;5075786;28;20047;-77
2021/07/28 07:37:00;;;;;;;3.60;1.50;;;;;;;;;;5093941;28;20413;-77
2021/07/28 07:39:26;;;;;;;2.00;0.95;;;;;;;;;;5092898;28;20446;-76
2021/07/28 07:41:53;;;;;;;2.58;1.00;;;;;;;;;;5093342;28;20054;-77
2021/07/28 07:44:20;;;;;;;2.47;1.00;;;;;;;;;;5095935;28;20057;-77
2021/07/28 07:46:46;;;;;;;2.75;1.10;;;;;;;;;;5093038;28;20044;-77
2021/07/28 07:49:13;;;;;;;3.88;1.20;;;;;;;;;;5093712;28;20493;-76
2021/07/28 07:51:42;;;;;;;3.80;1.20;;;;;;;;;;5094478;28;20120;-77
2021/07/28 07:54:09;;;;;;;1.33;0.75;;;;;;;;;;5092666;28;20077;-77
2021/07/28 07:56:35;;;;;;;1.52;1.02;;;;;;;;;;5091539;28;20054;-77
2021/07/28 07:59:02;;;;;;;3.42;1.10;;;;;;;;;;5092058;28;20501;-77
2021/07/28 08:01:29;;;;;;;2.42;1.05;;;;;;;;;;5094663;28;20111;-77
2021/07/28 08:03:55;;;;;;;3.05;1.10;;;;;;;;;;5076099;28;20046;-77
2021/07/28 08:06:22;;;;;;;2.25;0.95;;;;;;;;;;5092512;28;20040;-77
2021/07/28 08:08:48;;;;;;;2.78;0.90;;;;;;;;;;5093878;28;20126;-77
2021/07/28 08:11:16;;;;;;;3.25;1.02;;;;;;;;;;5075797;28;20064;-77
2021/07/28 08:13:43;;;;;;;2.10;0.95;;;;;;;;;;5091124;28;20044;-77
2021/07/28 08:16:22;;;;;;;2.67;1.13;;;;;;;;;;5076155;28;20076;-77
2021/07/28 08:18:50;;;;;;;2.67;0.90;;;;;;;;;;5076876;28;20051;-77
2021/07/28 08:21:18;;;;;;;2.85;0.90;;;;;;;;;;5073309;28;20078;-77
2021/07/28 08:23:46;;;;;;;3.60;1.17;;;;;;;;;;5093627;28;20031;-77
2021/07/28 08:26:14;;;;;;;3.63;1.00;;;;;;;;;;5092802;28;20679;-77
2021/07/28 08:28:42;;;;;;;6.38;1.20;;;;;;;;;;5093874;28;20039;-77
2021/07/28 08:31:10;;;;;;;1.98;0.80;;;;;;;;;;5075409;28;20080;-77
2021/07/28 08:33:36;;;;;;;3.13;0.85;;;;;;;;;;5092878;28;20387;-77
2021/07/28 08:36:03;;;;;;;4.20;1.15;;;;;;;;;;5094279;28;20070;-77
2021/07/28 08:38:30;;;;;;;3.78;1.15;;;;;;;;;;5093253;28;20040;-77
2021/07/28 08:41:01;;;;;;;3.15;0.95;;;;;;;;;;5093030;28;20137;-77
2021/07/28 08:43:35;;;;;;;2.88;1.10;;;;;;;;;;5074955;28;20055;-77
2021/07/28 08:46:07;;;;;;;6.57;1.63;;;;;;;;;;5093320;28;20039;-77
2021/07/28 08:48:35;;;;;;;4.88;1.58;;;;;;;;;;5090417;28;20040;-77
2021/07/28 08:51:04;;;;;;;4.95;1.67;;;;;;;;;;5093578;28;20048;-78
2021/07/28 08:53:30;;;;;;;7.80;3.47;;;;;;;;;;5092029;28;20384;-77
2021/07/28 08:55:59;;;;;;;6.57;3.92;;;;;;;;;;5091557;28;20546;-77
2021/07/28 08:58:27;;;;;;;6.10;3.70;;;;;;;;;;5074850;28;20039;-77
2021/07/28 09:00:55;;;;;;;4.90;2.33;;;;;;;;;;5093286;28;20054;-77
2021/07/28 09:03:21;;;;;;;3.78;1.80;;;;;;;;;;5073092;28;20040;-77
2021/07/28 09:05:49;;;;;;;4.20;1.58;;;;;;;;;;5093794;28;20038;-77
2021/07/28 09:08:29;;;;;;;5.07;1.67;;;;;;;;;;5091798;28;20501;-77
2021/07/28 09:11:03;;;;;;;5.57;1.63;;;;;;;;;;5092580;28;20043;-77
2021/07/28 09:13:31;;;;;;;4.43;1.13;;;;;;;;;;5091927;28;20051;-77
2021/07/28 09:15:59;;;;;;;6.45;1.80;;;;;;;;;;5092159;28;20207;-77
2021/07/28 09:18:35;;;;;;;8.52;1.83;;;;;;;;;;5089298;28;20040;-77
2021/07/28 09:21:24;;;;;;;4.20;2.08;;;;;;;;;;5072991;28;20036;-77
2021/07/28 09:23:54;;;;;;;3.05;1.70;;;;;;;;;;5090732;28;20044;-77
2021/07/28 09:26:47;;;;;;;4.78;1.42;;;;;;;;;;5090097;28;20051;-77
2021/07/28 09:29:18;;;;;;;3.45;1.38;;;;;;;;;;5092115;28;20559;-77
2021/07/28 09:31:48;;;;;;;3.42;1.50;;;;;;;;;;5090945;28;20100;-77
2021/07/28 09:34:24;;;;;;;5.13;1.30;;;;;;;;;;5072715;28;20040;-77
2021/07/28 09:36:54;;;;;;;3.15;1.15;;;;;;;;;;5074490;28;20391;-77
2021/07/28 09:39:34;;;;;;;2.78;1.10;;;;;;;;;;5095054;28;20096;-77
2021/07/28 09:42:09;;;;;;;4.20;1.55;;;;;;;;;;5090480;28;20040;-77
2021/07/28 09:44:35;;;;;;;;;;;;;;;;;;5091233;28;20056;-77
2021/07/28 09:47:18;;;;;;;3.75;1.42;;;;;;;;;;5092340;28;20035;-76
2021/07/28 09:49:46;;;;;;;4.70;1.30;;;;;;;;;;5098906;28;20067;-77
2021/07/28 09:52:34;;;;;;;6.93;1.13;;;;;;;;;;5093894;28;20043;-77
2021/07/28 09:55:27;;;;;;;3.45;1.55;;;;;;;;;;5074778;28;20523;-77
2021/07/28 09:57:56;;;;;;;4.45;1.55;;;;;;;;;;5091489;28;20119;-77
2021/07/28 10:00:23;;;;;;;;;;;;;;;;;;5072631;28;20044;-76
2021/07/28 10:02:51;;;;;;;4.53;1.77;;;;;;;;;;5073481;28;19974;-77
2021/07/28 10:05:22;;;;;;;3.30;1.70;;;;;;;;;;5073092;28;20064;-77
2021/07/28 10:07:50;;;;;;;4.88;1.98;;;;;;;;;;5089520;28;20040;-77
2021/07/28 10:10:20;;;;;;;2.95;1.17;;;;;;;;;;5091676;28;20443;-77
2021/07/28 10:12:49;;;;;;;4.63;1.55;;;;;;;;;;5094858;28;20378;-77
2021/07/28 10:15:18;;;;;;;4.18;1.75;;;;;;;;;;5091388;28;20042;-77
2021/07/28 10:17:46;;;;;;;11.73;2.60;;;;;;;;;;5090322;28;20040;-77
2021/07/28 10:20:13;;;;;;;4.85;1.77;;;;;;;;;;5072848;28;20452;-77
2021/07/28 10:22:42;;;;;;;4.45;2.33;;;;;;;;;;5047438;28;20442;-77
2021/07/28 10:25:20;;;;;;;7.63;2.92;;;;;;;;;;5090967;28;20051;-77
2021/07/28 10:27:49;;;;;;;8.18;2.95;;;;;;;;;;5082611;28;20055;-76
2021/07/28 10:30:19;;;;;;;6.93;3.00;;;;;;;;;;5072554;28;20398;-77
2021/07/28 10:32:46;;;;;;;6.03;3.35;;;;;;;;;;5091437;28;20435;-77
2021/07/28 10:35:28;;;;;;;6.93;3.85;;;;;;;;;;5091125;28;20119;-77
2021/07/28 10:38:01;;;;;;;8.10;4.80;;;;;;;;;;5091359;28;20042;-76
2021/07/28 10:40:29;;;;;;;9.18;5.10;;;;;;;;;;5093934;28;20036;-77
2021/07/28 10:42:55;;;;;;;11.60;4.95;;;;;;;;;;5090294;28;20521;-77
2021/07/28 10:45:23;;;;;;;9.25;4.85;;;;;;;;;;5089458;28;20168;-77
2021/07/28 10:47:51;;;;;;;10.43;5.20;;;;;;;;;;5072993;28;20071;-77
2021/07/28 10:50:24;;;;;;;10.48;5.15;;;;;;;;;;5091509;28;20089;-77
2021/07/28 10:52:57;;;;;;;10.32;4.45;;;;;;;;;;5087036;28;20508;-77
2021/07/28 10:55:28;;;;;;;11.02;5.05;;;;;;;;;;5071524;28;20062;-77
2021/07/28 10:57:54;;;;;;;9.77;4.25;;;;;;;;;;5093023;28;20035;-77
2021/07/28 11:00:39;;;;;;;14.75;3.40;;;;;;;;;;5093798;28;20051;-77
2021/07/28 11:03:09;;;;;;;7.60;3.47;;;;;;;;;;5090901;28;20040;-77
2021/07/28 11:05:35;;;;;;;7.85;3.33;;;;;;;;;;5090529;28;20040;-76
2021/07/28 11:08:02;;;;;;;7.07;3.08;;;;;;;;;;5088954;28;20039;-75
2021/07/28 11:10:30;;;;;;;11.45;3.10;;;;;;;;;;5090896;28;20050;-76
2021/07/28 11:12:57;;;;;;;15.23;4.13;;;;;;;;;;5092683;28;20055;-76
2021/07/28 11:15:24;;;;;;;9.32;3.28;;;;;;;;;;5078724;28;20040;-76
2021/07/28 11:17:57;;;;;;;6.82;2.97;;;;;;;;;;5073722;28;20059;-77
2021/07/28 11:20:32;;;;;;;7.50;3.47;;;;;;;;;;5071339;28;20036;-76
2021/07/28 11:23:28;;;;;;;9.30;3.70;;;;;;;;;;5089941;28;20040;-76
2021/07/28 11:25:56;;;;;;;13.98;4.63;;;;;;;;;;5092779;28;20052;-76
2021/07/28 11:28:23;;;;;;;8.73;4.65;;;;;;;;;;5063658;28;20044;-77
2021/07/28 11:31:10;;;;;;;9.05;4.50;;;;;;;;;;5089910;28;20051;-76
2021/07/28 11:33:37;;;;;;;13.57;6.15;;;;;;;;;;5105289;28;20047;-76
2021/07/28 11:36:07;;;;;;;11.13;5.70;;;;;;;;;;5087557;28;20405;-76
2021/07/28 11:38:40;;;;;;;12.07;5.65;;;;;;;;;;5105152;28;20130;-76
2021/07/28 11:41:10;;;;;;;9.43;5.45;;;;;;;;;;5101528;28;20044;-76
2021/07/28 11:43:39;;;;;;;9.15;4.82;;;;;;;;;;5075036;28;20555;-77
2021/07/28 11:46:13;;;;;;;10.90;4.65;;;;;;;;;;5085681;28;20118;-76
2021/07/28 11:48:42;;;;;;;10.00;3.92;;;;;;;;;;5060902;28;20039;-77
2021/07/28 11:51:11;;;;;;;6.32;3.13;;;;;;;;;;5072402;28;20068;-76
2021/07/28 11:53:38;;;;;;;11.25;3.05;;;;;;;;;;5076568;28;20036;-76
2021/07/28 11:56:16;;;;;;;8.13;3.10;;;;;;;;;;5043780;28;20028;-76
2021/07/28 11:58:47;;;;;;;5.35;2.40;;;;;;;;;;5081797;28;20074;-77
2021/07/28 12:01:22;;;;;;;5.80;1.92;;;;;;;;;;5043815;28;20044;-77
2021/07/28 12:04:15;;;;;;;5.10;1.83;;;;;;;;;;5076268;28;20083;-76
2021/07/28 12:06:43;;;;;;;5.85;2.13;;;;;;;;;;5051557;28;20040;-76
2021/07/28 12:09:16;;;;;;;6.28;1.83;;;;;;;;;;5081307;28;20044;-76
2021/07/28 12:11:52;;;;;;;9.70;1.70;;;;;;;;;;5060382;28;20040;-77
2021/07/28 12:14:39;;;;;;;4.88;1.85;;;;;;;;;;5030678;28;20064;-77
2021/07/28 12:17:22;;;;;;;4.85;1.40;;;;;;;;;;5059154;28;20036;-76
2021/07/28 12:20:01;;;;;;;6.07;1.88;;;;;;;;;;5102880;28;20047;-76
2021/07/28 12:22:39;;;;;;;6.78;1.45;;;;;;;;;;5098233;28;20036;-76
2021/07/28 12:25:26;;;;;;;5.90;1.65;;;;;;;;;;5074843;28;20524;-76
2021/07/28 12:27:56;;;;;;;5.20;1.60;;;;;;;;;;5086809;28;20517;-76
2021/07/28 12:30:33;;;;;;;4.30;1.40;;;;;;;;;;5080345;28;20126;-76
2021/07/28 12:33:10;;;;;;;8.90;1.73;;;;;;;;;;5089891;28;20047;-75
2021/07/28 12:35:56;;;;;;;4.05;1.40;;;;;;;;;;5057422;28;20040;-76
2021/07/28 12:38:26;;;;;;;5.13;1.67;;;;;;;;;;5063568;28;20044;-76
2021/07/28 12:41:01;;;;;;;6.60;2.25;;;;;;;;;;5079394;28;20036;-76
2021/07/28 12:43:34;;;;;;;14.95;2.58;;;;;;;;;;5081234;28;20549;-76
2021/07/28 12:46:02;;;;;;;5.72;2.08;;;;;;;;;;5070679;28;20062;-76
2021/07/28 12:48:31;;;;;;;4.50;1.60;;;;;;;;;;5044890;28;20064;-75
2021/07/28 12:51:00;;;;;;;5.13;1.80;;;;;;;;;;5090789;28;20063;-75
2021/07/28 12:53:29;;;;;;;;;;;;;;;;;;5090613;28;20118;-75
2021/07/28 12:55:58;;;;;;;5.68;1.38;;;;;;;;;;5102355;28;19928;-75
2021/07/28 12:58:25;;;;;;;8.23;1.70;;;;;;;;;;5090858;28;20040;-75
2021/07/28 13:00:59;;;;;;;7.32;2.05;;;;;;;;;;5069458;28;20481;-75
2021/07/28 13:03:27;;;;;;;4.65;1.70;;;;;;;;;;5102043;28;20062;-75
2021/07/28 13:06:06;;;;;;;4.75;1.58;;;;;;;;;;5102479;28;20052;-75
2021/07/28 13:08:36;;;;;;;6.65;2.00;;;;;;;;;;5101880;28;20043;-75
2021/07/28 13:11:03;;;;;;;4.93;1.27;;;;;;;;;;5101235;28;20076;-75
2021/07/28 13:13:29;;;;;;;3.95;1.13;;;;;;;;;;5074861;28;20046;-75
2021/07/28 13:15:59;;;;;;;2.95;1.20;;;;;;;;;;5062999;28;20039;-75
2021/07/28 13:18:26;;;;;;;3.78;1.10;;;;;;;;;;5099474;28;20039;-75
2021/07/28 13:20:52;;;;;;;3.60;1.40;;;;;;;;;;5091246;28;20036;-75
2021/07/28 13:23:21;;;;;;;5.03;1.48;;;;;;;;;;5080662;28;20455;-75
2021/07/28 13:25:48;;;;;;;8.07;1.02;;;;;;;;;;5100753;28;20480;-75
2021/07/28 13:28:15;;;;;;;4.18;1.38;;;;;;;;;;5043190;28;20046;-75
2021/07/28 13:30:41;;;;;;;5.93;1.35;;;;;;;;;;5053699;28;20175;-77
2021/07/28 13:33:08;;;;;;;6.43;1.45;;;;;;;;;;5055931;28;20517;-75
2021/07/28 13:35:36;;;;;;;4.95;1.48;;;;;;;;;;5072162;28;20039;-75
2021/07/28 13:38:02;;;;;;;2.47;1.40;;;;;;;;;;5048158;28;20098;-76
2021/07/28 13:40:29;;;;;;;4.47;1.20;;;;;;;;;;5073406;28;20921;-76
2021/07/28 13:42:55;;;;;;;8.10;1.27;;;;;;;;;;5054004;28;20131;-76
2021/07/28 13:45:22;;;;;;;2.95;1.10;;;;;;;;;;5072139;28;20074;-75
2021/07/28 13:47:49;;;;;;;3.83;1.00;;;;;;;;;;5070560;28;20486;-75
2021/07/28 13:50:18;;;;;;;5.50;1.38;;;;;;;;;;5044582;28;21261;-76
2021/07/28 13:52:49;;;;;;;6.38;2.15;;;;;;;;;;5057578;28;20458;-76
2021/07/28 13:55:16;;;;;;;7.85;1.55;;;;;;;;;;5058167;28;20071;-75
2021/07/28 13:57:44;;;;;;;6.35;1.50;;;;;;;;;;5071213;28;20776;-75
2021/07/28 14:00:14;;;;;;;6.55;1.50;;;;;;;;;;5065084;28;20036;-75
2021/07/28 14:02:40;;;;;;;5.20;1.60;;;;;;;;;;5072113;28;20133;-75
2021/07/28 14:05:07;;;;;;;6.63;1.92;;;;;;;;;;5075201;28;20043;-75
2021/07/28 14:07:34;;;;;;;6.18;1.85;;;;;;;;;;5074433;28;20043;-75
2021/07/28 14:10:00;;;;;;;4.32;1.38;;;;;;;;;;5070572;28;20108;-76
2021/07/28 14:12:28;;;;;;;6.78;1.70;;;;;;;;;;5042465;28;20075;-76
2021/07/28 14:14:55;;;;;;;5.65;1.45;;;;;;;;;;5070448;28;20110;-76
2021/07/28 14:17:24;;;;;;;7.85;2.50;;;;;;;;;;5073277;28;20047;-75
2021/07/28 14:19:50;;;;;;;8.68;1.80;;;;;;;;;;5060640;28;20035;-75
2021/07/28 14:22:18;;;;;;;4.78;1.50;;;;;;;;;;5066063;28;20036;-75
2021/07/28 14:24:44;;;;;;;5.88;1.60;;;;;;;;;;5072251;28;20086;-75
2021/07/28 14:27:11;;;;;;;4.50;1.30;;;;;;;;;;5073906;28;20035;-75
2021/07/28 14:29:40;;;;;;;8.60;2.45;;;;;;;;;;5074740;28;20036;-75
2021/07/28 14:32:07;;;;;;;11.32;3.00;;;;;;;;;;5073418;28;20047;-75
2021/07/28 14:34:34;;;;;;;7.93;2.42;;;;;;;;;;5054182;28;20048;-75
2021/07/28 14:37:00;;;;;;;3.97;1.73;;;;;;;;;;5062958;28;20062;-75
2021/07/28 14:39:29;;;;;;;5.45;1.90;;;;;;;;;;5065981;28;20040;-76
2021/07/28 14:41:55;;;;;;;7.70;2.70;;;;;;;;;;5067593;28;20047;-75
2021/07/28 14:44:22;;;;;;;8.05;3.17;;;;;;;;;;5060145;28;20071;-76
2021/07/28 14:46:48;;;;;;;7.53;2.83;;;;;;;;;;5066438;28;20056;-76
2021/07/28 14:49:15;;;;;;;8.02;1.95;;;;;;;;;;5071674;28;20055;-75
2021/07/28 14:51:42;;;;;;;9.18;2.67;;;;;;;;;;5065324;28;20048;-75
2021/07/28 14:54:13;;;;;;;8.43;2.20;;;;;;;;;;5072271;28;20135;-75